sensor_id;sensor_type;location;lat;lon;timestamp;temperature;humidity
1468;DHT22;727;48.892;9.544;2023-06-14T00:00:34;13.20;79.20
1468;DHT22;727;48.892;9.544;2023-06-14T00:03:01;13.10;78.90
1468;DHT22;727;48.892;9.544;2023-06-14T00:05:30;13.20;79.10
1468;DHT22;727;48.892;9.544;2023-06-14T00:07:59;13.10;78.90
1468;DHT22;727;48.892;9.544;2023-06-14T00:10:27;13.10;79.00
1468;DHT22;727;48.892;9.544;2023-06-14T00:12:58;13.00;79.30
1468;DHT22;727;48.892;9.544;2023-06-14T00:15:25;13.00;79.40
1468;DHT22;727;48.892;9.544;2023-06-14T00:17:52;13.00;79.30
1468;DHT22;727;48.892;9.544;2023-06-14T00:20:20;13.00;79.20
1468;DHT22;727;48.892;9.544;2023-06-14T00:22:47;13.00;79.20
1468;DHT22;727;48.892;9.544;2023-06-14T00:25:15;13.00;79.30
1468;DHT22;727;48.892;9.544;2023-06-14T00:27:42;13.00;79.30
1468;DHT22;727;48.892;9.544;2023-06-14T00:30:12;13.00;79.60
1468;DHT22;727;48.892;9.544;2023-06-14T00:32:40;12.90;79.70
1468;DHT22;727;48.892;9.544;2023-06-14T00:35:08;12.90;80.10
1468;DHT22;727;48.892;9.544;2023-06-14T00:37:35;12.90;80.70
1468;DHT22;727;48.892;9.544;2023-06-14T00:40:07;12.80;80.90
1468;DHT22;727;48.892;9.544;2023-06-14T00:42:35;12.70;81.10
1468;DHT22;727;48.892;9.544;2023-06-14T00:45:03;12.80;81.20
1468;DHT22;727;48.892;9.544;2023-06-14T00:47:43;12.70;81.40
1468;DHT22;727;48.892;9.544;2023-06-14T00:50:10;12.70;81.60
1468;DHT22;727;48.892;9.544;2023-06-14T00:52:39;12.60;81.90
1468;DHT22;727;48.892;9.544;2023-06-14T00:55:07;12.60;82.20
1468;DHT22;727;48.892;9.544;2023-06-14T00:57:36;12.50;82.50
1468;DHT22;727;48.892;9.544;2023-06-14T01:00:06;12.50;82.80
1468;DHT22;727;48.892;9.544;2023-06-14T01:02:36;12.40;82.90
1468;DHT22;727;48.892;9.544;2023-06-14T01:05:04;12.40;83.10
1468;DHT22;727;48.892;9.544;2023-06-14T01:07:37;12.40;83.30
1468;DHT22;727;48.892;9.544;2023-06-14T01:10:17;12.30;83.40
1468;DHT22;727;48.892;9.544;2023-06-14T01:12:51;12.30;84.00
1468;DHT22;727;48.892;9.544;2023-06-14T01:15:21;12.30;84.40
1468;DHT22;727;48.892;9.544;2023-06-14T01:17:51;12.30;84.50
1468;DHT22;727;48.892;9.544;2023-06-14T01:20:22;12.30;84.60
1468;DHT22;727;48.892;9.544;2023-06-14T01:22:52;12.20;84.50
1468;DHT22;727;48.892;9.544;2023-06-14T01:25:20;12.20;84.70
1468;DHT22;727;48.892;9.544;2023-06-14T01:27:49;12.20;85.00
1468;DHT22;727;48.892;9.544;2023-06-14T01:30:17;12.10;85.20
1468;DHT22;727;48.892;9.544;2023-06-14T01:32:45;12.10;85.40
1468;DHT22;727;48.892;9.544;2023-06-14T01:35:13;12.10;85.60
1468;DHT22;727;48.892;9.544;2023-06-14T01:37:40;12.10;85.90
1468;DHT22;727;48.892;9.544;2023-06-14T01:40:11;12.10;86.10
1468;DHT22;727;48.892;9.544;2023-06-14T01:42:39;12.00;86.00
1468;DHT22;727;48.892;9.544;2023-06-14T01:45:07;12.00;86.10
1468;DHT22;727;48.892;9.544;2023-06-14T01:47:35;12.00;86.20
1468;DHT22;727;48.892;9.544;2023-06-14T01:50:03;12.00;86.30
1468;DHT22;727;48.892;9.544;2023-06-14T01:52:31;12.00;86.40
1468;DHT22;727;48.892;9.544;2023-06-14T01:54:58;12.00;86.40
1468;DHT22;727;48.892;9.544;2023-06-14T01:57:29;12.00;86.80
1468;DHT22;727;48.892;9.544;2023-06-14T01:59:55;12.00;87.20
1468;DHT22;727;48.892;9.544;2023-06-14T02:02:24;12.00;87.40
1468;DHT22;727;48.892;9.544;2023-06-14T02:04:51;12.00;87.70
1468;DHT22;727;48.892;9.544;2023-06-14T02:07:18;12.00;87.90
1468;DHT22;727;48.892;9.544;2023-06-14T02:09:45;11.90;88.00
1468;DHT22;727;48.892;9.544;2023-06-14T02:12:12;11.80;88.20
1468;DHT22;727;48.892;9.544;2023-06-14T02:14:40;11.80;88.60
1468;DHT22;727;48.892;9.544;2023-06-14T02:17:07;11.80;88.90
1468;DHT22;727;48.892;9.544;2023-06-14T02:19:34;11.70;88.90
1468;DHT22;727;48.892;9.544;2023-06-14T02:22:01;11.60;89.10
1468;DHT22;727;48.892;9.544;2023-06-14T02:24:27;11.60;89.30
1468;DHT22;727;48.892;9.544;2023-06-14T02:26:55;11.50;89.70
1468;DHT22;727;48.892;9.544;2023-06-14T02:29:22;11.60;90.00
1468;DHT22;727;48.892;9.544;2023-06-14T02:31:50;11.60;90.00
1468;DHT22;727;48.892;9.544;2023-06-14T02:34:17;11.60;90.00
1468;DHT22;727;48.892;9.544;2023-06-14T02:36:45;11.60;90.20
1468;DHT22;727;48.892;9.544;2023-06-14T02:39:13;11.50;90.40
1468;DHT22;727;48.892;9.544;2023-06-14T02:41:40;11.50;90.50
1468;DHT22;727;48.892;9.544;2023-06-14T02:44:07;11.50;90.70
1468;DHT22;727;48.892;9.544;2023-06-14T02:46:34;11.50;90.70
1468;DHT22;727;48.892;9.544;2023-06-14T02:49:02;11.40;90.90
1468;DHT22;727;48.892;9.544;2023-06-14T02:51:29;11.40;91.10
1468;DHT22;727;48.892;9.544;2023-06-14T02:53:56;11.30;91.20
1468;DHT22;727;48.892;9.544;2023-06-14T02:56:23;11.30;91.40
1468;DHT22;727;48.892;9.544;2023-06-14T02:58:51;11.20;91.50
1468;DHT22;727;48.892;9.544;2023-06-14T03:01:19;11.20;91.70
1468;DHT22;727;48.892;9.544;2023-06-14T03:03:47;11.20;91.80
1468;DHT22;727;48.892;9.544;2023-06-14T03:06:15;11.20;92.10
1468;DHT22;727;48.892;9.544;2023-06-14T03:08:42;11.20;92.30
1468;DHT22;727;48.892;9.544;2023-06-14T03:11:09;11.10;92.30
1468;DHT22;727;48.892;9.544;2023-06-14T03:13:36;11.10;92.40
1468;DHT22;727;48.892;9.544;2023-06-14T03:16:04;11.10;92.50
1468;DHT22;727;48.892;9.544;2023-06-14T03:18:32;11.10;92.60
1468;DHT22;727;48.892;9.544;2023-06-14T03:21:01;11.10;92.60
1468;DHT22;727;48.892;9.544;2023-06-14T03:23:30;11.10;92.90
1468;DHT22;727;48.892;9.544;2023-06-14T03:25:57;11.10;92.90
1468;DHT22;727;48.892;9.544;2023-06-14T03:28:24;11.10;93.00
1468;DHT22;727;48.892;9.544;2023-06-14T03:30:51;11.10;93.00
1468;DHT22;727;48.892;9.544;2023-06-14T03:33:18;11.10;93.20
1468;DHT22;727;48.892;9.544;2023-06-14T03:35:46;11.10;93.20
1468;DHT22;727;48.892;9.544;2023-06-14T03:38:13;11.10;93.30
1468;DHT22;727;48.892;9.544;2023-06-14T03:40:42;11.10;93.30
1468;DHT22;727;48.892;9.544;2023-06-14T03:43:10;11.10;93.40
1468;DHT22;727;48.892;9.544;2023-06-14T03:45:36;11.00;93.50
1468;DHT22;727;48.892;9.544;2023-06-14T03:48:04;11.00;94.00
1468;DHT22;727;48.892;9.544;2023-06-14T03:50:32;11.10;94.10
1468;DHT22;727;48.892;9.544;2023-06-14T03:53:00;11.10;94.20
1468;DHT22;727;48.892;9.544;2023-06-14T03:55:27;11.20;94.40
1468;DHT22;727;48.892;9.544;2023-06-14T03:57:58;11.20;94.60
1468;DHT22;727;48.892;9.544;2023-06-14T04:00:25;11.10;94.70
1468;DHT22;727;48.892;9.544;2023-06-14T04:02:52;11.10;95.00
1468;DHT22;727;48.892;9.544;2023-06-14T04:05:19;11.10;95.10
1468;DHT22;727;48.892;9.544;2023-06-14T04:07:46;11.10;95.20
1468;DHT22;727;48.892;9.544;2023-06-14T04:10:15;11.10;95.30
1468;DHT22;727;48.892;9.544;2023-06-14T04:12:42;11.10;95.40
1468;DHT22;727;48.892;9.544;2023-06-14T04:15:11;11.20;95.60
1468;DHT22;727;48.892;9.544;2023-06-14T04:17:38;11.30;95.70
1468;DHT22;727;48.892;9.544;2023-06-14T04:20:06;11.50;95.60
1468;DHT22;727;48.892;9.544;2023-06-14T04:22:34;11.60;95.60
1468;DHT22;727;48.892;9.544;2023-06-14T04:25:02;11.80;95.50
1468;DHT22;727;48.892;9.544;2023-06-14T04:27:29;12.00;95.00
1468;DHT22;727;48.892;9.544;2023-06-14T04:29:59;12.20;94.60
1468;DHT22;727;48.892;9.544;2023-06-14T04:32:29;12.30;94.30
1468;DHT22;727;48.892;9.544;2023-06-14T04:34:59;12.50;93.90
1468;DHT22;727;48.892;9.544;2023-06-14T04:37:27;12.60;93.60
1468;DHT22;727;48.892;9.544;2023-06-14T04:39:56;12.70;93.10
1468;DHT22;727;48.892;9.544;2023-06-14T04:42:23;13.00;93.30
1468;DHT22;727;48.892;9.544;2023-06-14T04:44:50;14.00;92.10
1468;DHT22;727;48.892;9.544;2023-06-14T04:47:21;15.40;89.40
1468;DHT22;727;48.892;9.544;2023-06-14T04:49:51;16.70;83.40
1468;DHT22;727;48.892;9.544;2023-06-14T04:52:19;17.50;78.70
1468;DHT22;727;48.892;9.544;2023-06-14T04:54:47;18.50;75.40
1468;DHT22;727;48.892;9.544;2023-06-14T04:57:14;19.00;72.80
1468;DHT22;727;48.892;9.544;2023-06-14T04:59:42;19.30;70.10
1468;DHT22;727;48.892;9.544;2023-06-14T05:02:09;19.40;68.20
1468;DHT22;727;48.892;9.544;2023-06-14T05:04:37;20.20;65.80
1468;DHT22;727;48.892;9.544;2023-06-14T05:07:08;20.90;63.00
1468;DHT22;727;48.892;9.544;2023-06-14T05:09:36;21.30;60.70
1468;DHT22;727;48.892;9.544;2023-06-14T05:12:03;21.80;58.90
1468;DHT22;727;48.892;9.544;2023-06-14T05:14:30;22.00;57.80
1468;DHT22;727;48.892;9.544;2023-06-14T05:16:57;22.40;57.10
1468;DHT22;727;48.892;9.544;2023-06-14T05:19:38;22.40;56.20
1468;DHT22;727;48.892;9.544;2023-06-14T05:22:06;22.50;56.40
1468;DHT22;727;48.892;9.544;2023-06-14T05:24:33;22.30;56.50
1468;DHT22;727;48.892;9.544;2023-06-14T05:27:00;22.80;56.50
1468;DHT22;727;48.892;9.544;2023-06-14T05:29:28;22.70;56.00
1468;DHT22;727;48.892;9.544;2023-06-14T05:31:55;22.70;56.10
1468;DHT22;727;48.892;9.544;2023-06-14T05:34:22;22.90;56.30
1468;DHT22;727;48.892;9.544;2023-06-14T05:36:48;22.90;55.50
1468;DHT22;727;48.892;9.544;2023-06-14T05:39:17;23.30;54.40
1468;DHT22;727;48.892;9.544;2023-06-14T05:41:44;23.30;54.30
1468;DHT22;727;48.892;9.544;2023-06-14T05:44:11;23.60;54.50
1468;DHT22;727;48.892;9.544;2023-06-14T05:46:37;23.80;54.10
1468;DHT22;727;48.892;9.544;2023-06-14T05:49:05;23.70;54.90
1468;DHT22;727;48.892;9.544;2023-06-14T05:51:32;24.00;54.30
1468;DHT22;727;48.892;9.544;2023-06-14T05:53:59;24.30;53.20
1468;DHT22;727;48.892;9.544;2023-06-14T05:56:27;24.20;53.10
1468;DHT22;727;48.892;9.544;2023-06-14T05:58:55;23.80;53.80
1468;DHT22;727;48.892;9.544;2023-06-14T06:01:22;23.80;53.60
1468;DHT22;727;48.892;9.544;2023-06-14T06:03:49;23.70;53.90
1468;DHT22;727;48.892;9.544;2023-06-14T06:06:15;23.40;54.50
1468;DHT22;727;48.892;9.544;2023-06-14T06:08:43;23.00;54.90
1468;DHT22;727;48.892;9.544;2023-06-14T06:11:10;22.80;55.40
1468;DHT22;727;48.892;9.544;2023-06-14T06:13:38;22.50;56.90
1468;DHT22;727;48.892;9.544;2023-06-14T06:16:06;22.30;57.60
1468;DHT22;727;48.892;9.544;2023-06-14T06:18:33;22.20;57.70
1468;DHT22;727;48.892;9.544;2023-06-14T06:21:00;21.90;58.10
1468;DHT22;727;48.892;9.544;2023-06-14T06:23:28;21.60;58.90
1468;DHT22;727;48.892;9.544;2023-06-14T06:25:55;21.40;59.60
1468;DHT22;727;48.892;9.544;2023-06-14T06:28:23;21.60;59.30
1468;DHT22;727;48.892;9.544;2023-06-14T06:30:52;21.70;59.10
1468;DHT22;727;48.892;9.544;2023-06-14T06:33:19;21.80;58.90
1468;DHT22;727;48.892;9.544;2023-06-14T06:35:45;21.80;58.30
1468;DHT22;727;48.892;9.544;2023-06-14T06:38:13;21.80;58.30
1468;DHT22;727;48.892;9.544;2023-06-14T06:40:39;21.80;58.70
1468;DHT22;727;48.892;9.544;2023-06-14T06:43:06;22.00;58.30
1468;DHT22;727;48.892;9.544;2023-06-14T06:45:33;22.40;57.60
1468;DHT22;727;48.892;9.544;2023-06-14T06:48:01;22.50;57.10
1468;DHT22;727;48.892;9.544;2023-06-14T06:50:28;22.60;57.00
1468;DHT22;727;48.892;9.544;2023-06-14T06:52:55;22.70;56.10
1468;DHT22;727;48.892;9.544;2023-06-14T06:55:23;22.50;56.40
1468;DHT22;727;48.892;9.544;2023-06-14T06:57:49;22.60;56.70
1468;DHT22;727;48.892;9.544;2023-06-14T07:00:18;22.70;56.00
1468;DHT22;727;48.892;9.544;2023-06-14T07:02:45;22.60;56.00
1468;DHT22;727;48.892;9.544;2023-06-14T07:05:13;22.70;56.20
1468;DHT22;727;48.892;9.544;2023-06-14T07:07:40;22.50;55.70
1468;DHT22;727;48.892;9.544;2023-06-14T07:10:07;22.50;56.00
1468;DHT22;727;48.892;9.544;2023-06-14T07:12:34;22.70;56.10
1468;DHT22;727;48.892;9.544;2023-06-14T07:15:05;22.90;56.00
1468;DHT22;727;48.892;9.544;2023-06-14T07:17:33;23.10;57.00
1468;DHT22;727;48.892;9.544;2023-06-14T07:20:00;23.10;55.60
1468;DHT22;727;48.892;9.544;2023-06-14T07:22:32;23.40;56.00
1468;DHT22;727;48.892;9.544;2023-06-14T07:24:59;23.40;54.80
1468;DHT22;727;48.892;9.544;2023-06-14T07:27:25;23.40;55.10
1468;DHT22;727;48.892;9.544;2023-06-14T07:29:52;23.40;56.50
1468;DHT22;727;48.892;9.544;2023-06-14T07:32:20;23.40;55.30
1468;DHT22;727;48.892;9.544;2023-06-14T07:34:47;23.40;55.30
1468;DHT22;727;48.892;9.544;2023-06-14T07:37:13;23.70;54.70
1468;DHT22;727;48.892;9.544;2023-06-14T07:39:43;23.70;55.30
1468;DHT22;727;48.892;9.544;2023-06-14T07:42:10;23.80;53.40
1468;DHT22;727;48.892;9.544;2023-06-14T07:44:36;23.90;54.80
1468;DHT22;727;48.892;9.544;2023-06-14T07:47:04;24.10;52.90
1468;DHT22;727;48.892;9.544;2023-06-14T07:49:31;24.10;52.50
1468;DHT22;727;48.892;9.544;2023-06-14T07:51:59;24.00;53.10
1468;DHT22;727;48.892;9.544;2023-06-14T07:54:26;24.10;53.50
1468;DHT22;727;48.892;9.544;2023-06-14T07:56:54;24.20;52.60
1468;DHT22;727;48.892;9.544;2023-06-14T07:59:21;24.00;52.60
1468;DHT22;727;48.892;9.544;2023-06-14T08:01:48;24.00;53.40
1468;DHT22;727;48.892;9.544;2023-06-14T08:04:15;24.00;54.10
1468;DHT22;727;48.892;9.544;2023-06-14T08:06:42;24.10;53.10
1468;DHT22;727;48.892;9.544;2023-06-14T08:09:11;24.40;52.50
1468;DHT22;727;48.892;9.544;2023-06-14T08:11:37;24.60;52.10
1468;DHT22;727;48.892;9.544;2023-06-14T08:14:06;24.80;52.20
1468;DHT22;727;48.892;9.544;2023-06-14T08:16:32;25.10;51.50
1468;DHT22;727;48.892;9.544;2023-06-14T08:18:59;25.10;50.90
1468;DHT22;727;48.892;9.544;2023-06-14T08:21:26;25.20;52.10
1468;DHT22;727;48.892;9.544;2023-06-14T08:23:54;25.30;50.70
1468;DHT22;727;48.892;9.544;2023-06-14T08:26:21;25.30;51.00
1468;DHT22;727;48.892;9.544;2023-06-14T08:28:48;25.40;50.40
1468;DHT22;727;48.892;9.544;2023-06-14T08:31:16;25.60;50.70
1468;DHT22;727;48.892;9.544;2023-06-14T08:33:43;25.50;49.70
1468;DHT22;727;48.892;9.544;2023-06-14T08:36:12;25.40;50.30
1468;DHT22;727;48.892;9.544;2023-06-14T08:38:39;25.60;50.80
1468;DHT22;727;48.892;9.544;2023-06-14T08:41:06;25.70;51.00
1468;DHT22;727;48.892;9.544;2023-06-14T08:43:34;25.80;50.10
1468;DHT22;727;48.892;9.544;2023-06-14T08:46:03;25.80;50.30
1468;DHT22;727;48.892;9.544;2023-06-14T08:48:32;25.80;50.70
1468;DHT22;727;48.892;9.544;2023-06-14T08:51:00;25.90;51.40
1468;DHT22;727;48.892;9.544;2023-06-14T08:53:30;25.80;51.10
1468;DHT22;727;48.892;9.544;2023-06-14T08:55:59;25.80;52.10
1468;DHT22;727;48.892;9.544;2023-06-14T08:58:27;25.60;50.80
1468;DHT22;727;48.892;9.544;2023-06-14T09:00:55;25.80;51.20
1468;DHT22;727;48.892;9.544;2023-06-14T09:03:22;25.70;51.60
1468;DHT22;727;48.892;9.544;2023-06-14T09:05:56;25.50;51.00
1468;DHT22;727;48.892;9.544;2023-06-14T09:08:24;25.40;51.20
1468;DHT22;727;48.892;9.544;2023-06-14T09:10:51;25.80;50.20
1468;DHT22;727;48.892;9.544;2023-06-14T09:13:18;25.90;48.10
1468;DHT22;727;48.892;9.544;2023-06-14T09:15:45;26.10;48.30
1468;DHT22;727;48.892;9.544;2023-06-14T09:18:12;26.30;50.00
1468;DHT22;727;48.892;9.544;2023-06-14T09:20:40;26.60;50.20
1468;DHT22;727;48.892;9.544;2023-06-14T09:23:09;26.60;49.70
1468;DHT22;727;48.892;9.544;2023-06-14T09:25:43;26.60;49.60
1468;DHT22;727;48.892;9.544;2023-06-14T09:28:10;26.60;49.50
1468;DHT22;727;48.892;9.544;2023-06-14T09:30:37;26.80;48.20
1468;DHT22;727;48.892;9.544;2023-06-14T09:33:04;26.90;47.40
1468;DHT22;727;48.892;9.544;2023-06-14T09:35:31;27.00;46.10
1468;DHT22;727;48.892;9.544;2023-06-14T09:37:58;27.00;47.40
1468;DHT22;727;48.892;9.544;2023-06-14T09:40:26;26.90;48.00
1468;DHT22;727;48.892;9.544;2023-06-14T09:42:54;27.10;47.70
1468;DHT22;727;48.892;9.544;2023-06-14T09:45:23;26.90;46.60
1468;DHT22;727;48.892;9.544;2023-06-14T09:47:51;26.90;45.60
1468;DHT22;727;48.892;9.544;2023-06-14T09:50:18;26.90;45.60
1468;DHT22;727;48.892;9.544;2023-06-14T09:52:47;26.80;45.70
1468;DHT22;727;48.892;9.544;2023-06-14T09:55:16;27.00;44.60
1468;DHT22;727;48.892;9.544;2023-06-14T09:57:48;27.60;45.90
1468;DHT22;727;48.892;9.544;2023-06-14T10:00:18;28.10;45.20
1468;DHT22;727;48.892;9.544;2023-06-14T10:02:51;28.60;44.70
1468;DHT22;727;48.892;9.544;2023-06-14T10:05:20;28.50;43.40
1468;DHT22;727;48.892;9.544;2023-06-14T10:07:52;28.30;44.00
1468;DHT22;727;48.892;9.544;2023-06-14T10:10:20;28.50;43.10
1468;DHT22;727;48.892;9.544;2023-06-14T10:12:53;28.30;41.20
1468;DHT22;727;48.892;9.544;2023-06-14T10:15:30;28.40;41.70
1468;DHT22;727;48.892;9.544;2023-06-14T10:18:03;28.10;42.50
1468;DHT22;727;48.892;9.544;2023-06-14T10:20:37;27.90;43.40
1468;DHT22;727;48.892;9.544;2023-06-14T10:23:10;28.00;42.50
1468;DHT22;727;48.892;9.544;2023-06-14T10:25:37;28.30;41.80
1468;DHT22;727;48.892;9.544;2023-06-14T10:28:15;28.20;42.80
1468;DHT22;727;48.892;9.544;2023-06-14T10:31:04;27.90;42.30
1468;DHT22;727;48.892;9.544;2023-06-14T10:33:30;27.20;42.00
1468;DHT22;727;48.892;9.544;2023-06-14T10:36:23;26.50;43.60
1468;DHT22;727;48.892;9.544;2023-06-14T10:39:04;26.50;44.30
1468;DHT22;727;48.892;9.544;2023-06-14T10:41:35;25.70;45.30
1468;DHT22;727;48.892;9.544;2023-06-14T10:44:43;25.80;45.00
1468;DHT22;727;48.892;9.544;2023-06-14T10:47:20;26.40;43.70
1468;DHT22;727;48.892;9.544;2023-06-14T10:49:50;26.90;42.90
1468;DHT22;727;48.892;9.544;2023-06-14T10:52:21;27.60;44.00
1468;DHT22;727;48.892;9.544;2023-06-14T10:55:05;28.20;41.40
1468;DHT22;727;48.892;9.544;2023-06-14T10:57:35;28.00;41.70
1468;DHT22;727;48.892;9.544;2023-06-14T11:00:05;27.50;42.30
1468;DHT22;727;48.892;9.544;2023-06-14T11:05:43;28.30;42.70
1468;DHT22;727;48.892;9.544;2023-06-14T11:11:09;28.90;39.60
1468;DHT22;727;48.892;9.544;2023-06-14T11:13:38;28.90;39.50
1468;DHT22;727;48.892;9.544;2023-06-14T11:16:12;28.80;39.80
1468;DHT22;727;48.892;9.544;2023-06-14T11:18:40;29.40;38.90
1468;DHT22;727;48.892;9.544;2023-06-14T11:21:07;29.60;38.90
1468;DHT22;727;48.892;9.544;2023-06-14T11:23:35;29.90;38.80
1468;DHT22;727;48.892;9.544;2023-06-14T11:26:02;29.70;39.20
1468;DHT22;727;48.892;9.544;2023-06-14T11:28:37;29.70;39.70
1468;DHT22;727;48.892;9.544;2023-06-14T11:31:04;29.80;39.50
1468;DHT22;727;48.892;9.544;2023-06-14T11:33:33;30.00;39.70
1468;DHT22;727;48.892;9.544;2023-06-14T11:36:02;29.80;39.40
1468;DHT22;727;48.892;9.544;2023-06-14T11:38:29;29.60;39.60
1468;DHT22;727;48.892;9.544;2023-06-14T11:40:59;29.70;40.20
1468;DHT22;727;48.892;9.544;2023-06-14T11:43:26;29.90;40.20
1468;DHT22;727;48.892;9.544;2023-06-14T11:45:54;30.10;40.00
1468;DHT22;727;48.892;9.544;2023-06-14T11:48:21;30.10;39.80
1468;DHT22;727;48.892;9.544;2023-06-14T11:50:51;30.30;39.90
1468;DHT22;727;48.892;9.544;2023-06-14T11:53:18;30.10;39.20
1468;DHT22;727;48.892;9.544;2023-06-14T11:55:45;29.60;39.90
1468;DHT22;727;48.892;9.544;2023-06-14T11:58:13;29.00;41.60
1468;DHT22;727;48.892;9.544;2023-06-14T12:00:40;28.20;42.00
1468;DHT22;727;48.892;9.544;2023-06-14T12:03:07;28.10;42.30
1468;DHT22;727;48.892;9.544;2023-06-14T12:05:34;28.20;42.10
1468;DHT22;727;48.892;9.544;2023-06-14T12:08:03;28.60;42.60
1468;DHT22;727;48.892;9.544;2023-06-14T12:10:40;28.60;42.30
1468;DHT22;727;48.892;9.544;2023-06-14T12:13:09;28.80;42.20
1468;DHT22;727;48.892;9.544;2023-06-14T12:15:36;28.90;42.80
1468;DHT22;727;48.892;9.544;2023-06-14T12:18:05;29.30;40.70
1468;DHT22;727;48.892;9.544;2023-06-14T12:20:34;29.20;40.70
1468;DHT22;727;48.892;9.544;2023-06-14T12:23:04;28.80;41.20
1468;DHT22;727;48.892;9.544;2023-06-14T12:25:32;28.30;41.10
1468;DHT22;727;48.892;9.544;2023-06-14T12:28:03;28.50;42.30
1468;DHT22;727;48.892;9.544;2023-06-14T12:30:30;28.60;41.20
1468;DHT22;727;48.892;9.544;2023-06-14T12:32:57;28.50;41.30
1468;DHT22;727;48.892;9.544;2023-06-14T12:35:27;28.40;41.90
1468;DHT22;727;48.892;9.544;2023-06-14T12:37:53;28.10;41.90
1468;DHT22;727;48.892;9.544;2023-06-14T12:40:26;28.00;42.30
1468;DHT22;727;48.892;9.544;2023-06-14T12:42:53;27.90;43.90
1468;DHT22;727;48.892;9.544;2023-06-14T12:45:20;28.00;42.20
1468;DHT22;727;48.892;9.544;2023-06-14T12:47:47;27.70;43.00
1468;DHT22;727;48.892;9.544;2023-06-14T12:50:14;27.40;43.00
1468;DHT22;727;48.892;9.544;2023-06-14T12:52:41;27.10;43.20
1468;DHT22;727;48.892;9.544;2023-06-14T12:55:08;27.10;44.20
1468;DHT22;727;48.892;9.544;2023-06-14T12:57:36;27.00;43.10
1468;DHT22;727;48.892;9.544;2023-06-14T13:00:04;26.70;44.40
1468;DHT22;727;48.892;9.544;2023-06-14T13:02:33;26.60;44.60
1468;DHT22;727;48.892;9.544;2023-06-14T13:05:00;26.60;44.40
1468;DHT22;727;48.892;9.544;2023-06-14T13:07:29;26.80;43.80
1468;DHT22;727;48.892;9.544;2023-06-14T13:09:55;26.80;43.60
1468;DHT22;727;48.892;9.544;2023-06-14T13:12:22;26.70;43.80
1468;DHT22;727;48.892;9.544;2023-06-14T13:14:51;26.60;44.10
1468;DHT22;727;48.892;9.544;2023-06-14T13:17:18;26.90;44.20
1468;DHT22;727;48.892;9.544;2023-06-14T13:19:45;27.30;44.80
1468;DHT22;727;48.892;9.544;2023-06-14T13:22:12;27.30;42.20
1468;DHT22;727;48.892;9.544;2023-06-14T13:24:41;27.30;41.80
1468;DHT22;727;48.892;9.544;2023-06-14T13:27:08;27.30;42.40
1468;DHT22;727;48.892;9.544;2023-06-14T13:29:35;27.30;42.10
1468;DHT22;727;48.892;9.544;2023-06-14T13:32:04;27.40;43.00
1468;DHT22;727;48.892;9.544;2023-06-14T13:34:31;27.50;43.40
1468;DHT22;727;48.892;9.544;2023-06-14T13:37:01;27.80;42.60
1468;DHT22;727;48.892;9.544;2023-06-14T13:39:28;27.90;42.60
1468;DHT22;727;48.892;9.544;2023-06-14T13:41:56;27.60;43.10
1468;DHT22;727;48.892;9.544;2023-06-14T13:44:23;27.50;43.40
1468;DHT22;727;48.892;9.544;2023-06-14T13:46:50;27.90;42.10
1468;DHT22;727;48.892;9.544;2023-06-14T13:49:18;28.00;41.90
1468;DHT22;727;48.892;9.544;2023-06-14T13:51:46;27.80;40.60
1468;DHT22;727;48.892;9.544;2023-06-14T13:54:13;27.80;41.30
1468;DHT22;727;48.892;9.544;2023-06-14T13:56:40;27.80;40.60
1468;DHT22;727;48.892;9.544;2023-06-14T13:59:08;27.90;42.40
1468;DHT22;727;48.892;9.544;2023-06-14T14:01:34;28.40;41.40
1468;DHT22;727;48.892;9.544;2023-06-14T14:04:01;28.80;39.30
1468;DHT22;727;48.892;9.544;2023-06-14T14:06:29;28.90;40.30
1468;DHT22;727;48.892;9.544;2023-06-14T14:08:56;29.20;39.40
1468;DHT22;727;48.892;9.544;2023-06-14T14:11:23;29.30;39.50
1468;DHT22;727;48.892;9.544;2023-06-14T14:13:50;28.70;40.70
1468;DHT22;727;48.892;9.544;2023-06-14T14:16:17;28.60;40.70
1468;DHT22;727;48.892;9.544;2023-06-14T14:18:44;28.30;40.10
1468;DHT22;727;48.892;9.544;2023-06-14T14:21:14;28.40;41.10
1468;DHT22;727;48.892;9.544;2023-06-14T14:23:42;28.60;39.80
1468;DHT22;727;48.892;9.544;2023-06-14T14:26:09;28.80;40.20
1468;DHT22;727;48.892;9.544;2023-06-14T14:28:36;28.80;40.50
1468;DHT22;727;48.892;9.544;2023-06-14T14:31:03;29.10;40.00
1468;DHT22;727;48.892;9.544;2023-06-14T14:33:30;29.30;38.60
1468;DHT22;727;48.892;9.544;2023-06-14T14:35:57;29.00;37.90
1468;DHT22;727;48.892;9.544;2023-06-14T14:38:25;28.80;38.80
1468;DHT22;727;48.892;9.544;2023-06-14T14:40:53;28.80;39.10
1468;DHT22;727;48.892;9.544;2023-06-14T14:43:20;28.90;38.20
1468;DHT22;727;48.892;9.544;2023-06-14T14:45:47;28.70;38.90
1468;DHT22;727;48.892;9.544;2023-06-14T14:48:14;28.40;40.00
1468;DHT22;727;48.892;9.544;2023-06-14T14:50:40;28.50;39.20
1468;DHT22;727;48.892;9.544;2023-06-14T14:53:15;28.80;39.40
1468;DHT22;727;48.892;9.544;2023-06-14T14:55:42;29.10;38.80
1468;DHT22;727;48.892;9.544;2023-06-14T14:58:12;29.00;40.90
1468;DHT22;727;48.892;9.544;2023-06-14T15:00:42;29.30;38.50
1468;DHT22;727;48.892;9.544;2023-06-14T15:03:09;29.50;38.60
1468;DHT22;727;48.892;9.544;2023-06-14T15:05:36;29.80;37.20
1468;DHT22;727;48.892;9.544;2023-06-14T15:08:03;29.90;37.60
1468;DHT22;727;48.892;9.544;2023-06-14T15:10:30;29.60;38.70
1468;DHT22;727;48.892;9.544;2023-06-14T15:12:57;28.70;41.40
1468;DHT22;727;48.892;9.544;2023-06-14T15:15:29;28.30;40.40
1468;DHT22;727;48.892;9.544;2023-06-14T15:17:55;27.90;41.20
1468;DHT22;727;48.892;9.544;2023-06-14T15:20:22;27.40;41.40
1468;DHT22;727;48.892;9.544;2023-06-14T15:22:49;27.30;41.20
1468;DHT22;727;48.892;9.544;2023-06-14T15:25:16;27.10;42.20
1468;DHT22;727;48.892;9.544;2023-06-14T15:27:44;26.80;43.70
1468;DHT22;727;48.892;9.544;2023-06-14T15:30:13;26.60;43.30
1468;DHT22;727;48.892;9.544;2023-06-14T15:32:41;26.60;43.40
1468;DHT22;727;48.892;9.544;2023-06-14T15:35:08;26.60;43.00
1468;DHT22;727;48.892;9.544;2023-06-14T15:37:35;26.50;42.70
1468;DHT22;727;48.892;9.544;2023-06-14T15:40:03;26.40;42.90
1468;DHT22;727;48.892;9.544;2023-06-14T15:42:30;26.20;43.20
1468;DHT22;727;48.892;9.544;2023-06-14T15:44:57;26.00;43.40
1468;DHT22;727;48.892;9.544;2023-06-14T15:47:23;25.90;42.90
1468;DHT22;727;48.892;9.544;2023-06-14T15:49:52;25.70;43.80
1468;DHT22;727;48.892;9.544;2023-06-14T15:52:18;25.60;44.70
1468;DHT22;727;48.892;9.544;2023-06-14T15:54:45;25.60;45.10
1468;DHT22;727;48.892;9.544;2023-06-14T15:57:12;25.50;45.60
1468;DHT22;727;48.892;9.544;2023-06-14T15:59:40;25.50;45.80
1468;DHT22;727;48.892;9.544;2023-06-14T16:02:07;25.40;45.90
1468;DHT22;727;48.892;9.544;2023-06-14T16:04:33;25.20;47.60
1468;DHT22;727;48.892;9.544;2023-06-14T16:07:01;25.20;47.60
1468;DHT22;727;48.892;9.544;2023-06-14T16:09:28;25.30;46.80
1468;DHT22;727;48.892;9.544;2023-06-14T16:11:56;25.30;46.70
1468;DHT22;727;48.892;9.544;2023-06-14T16:14:23;25.20;47.00
1468;DHT22;727;48.892;9.544;2023-06-14T16:16:50;25.20;47.20
1468;DHT22;727;48.892;9.544;2023-06-14T16:19:16;25.20;46.80
1468;DHT22;727;48.892;9.544;2023-06-14T16:21:45;25.30;46.40
1468;DHT22;727;48.892;9.544;2023-06-14T16:24:13;25.20;46.40
1468;DHT22;727;48.892;9.544;2023-06-14T16:26:40;25.20;48.20
1468;DHT22;727;48.892;9.544;2023-06-14T16:29:08;25.30;47.00